Terminal Aerodrome Forecast
Issued by NWS Missoula, MT

Home | Current Version | Previous Version | Text Only | Print | Product List | Glossary On
Versions: 1 2 3 4 5 6 7 8 9 10 11 12 13 14 15 16 17 18 19 20
984
FTUS45 KMSO 281938 AAA
TAFBTM
TAF AMD
KBTM 281938Z 2820/2918 33011G21KT P6SM VCTS SCT060CB BKN100
     FM282300 33008KT P6SM VCSH BKN080
     FM290900 VRB05KT P6SM -SHRA BKN050 OVC080=

USA.gov is the U.S. government's official web portal to all federal, state and local government web resources and services.